sensor_id;sensor_type;location;lat;lon;timestamp;P1;durP1;ratioP1;P2;durP2;ratioP2
34405;SDS011;20658;45.630;8.886;2022-12-08T00:00:11;63.10;;;40.65;;
34405;SDS011;20658;45.630;8.886;2022-12-08T00:02:45;79.32;;;48.70;;
34405;SDS011;20658;45.630;8.886;2022-12-08T00:05:18;77.22;;;49.70;;
34405;SDS011;20658;45.630;8.886;2022-12-08T00:08:09;79.43;;;40.88;;
34405;SDS011;20658;45.630;8.886;2022-12-08T00:11:01;60.03;;;40.50;;
34405;SDS011;20658;45.630;8.886;2022-12-08T00:13:35;59.13;;;37.10;;
34405;SDS011;20658;45.630;8.886;2022-12-08T00:16:08;59.08;;;37.83;;
34405;SDS011;20658;45.630;8.886;2022-12-08T00:18:42;60.33;;;37.78;;
34405;SDS011;20658;45.630;8.886;2022-12-08T00:21:15;93.72;;;57.50;;
34405;SDS011;20658;45.630;8.886;2022-12-08T00:23:49;55.30;;;33.45;;
34405;SDS011;20658;45.630;8.886;2022-12-08T00:26:19;53.42;;;32.90;;
34405;SDS011;20658;45.630;8.886;2022-12-08T00:28:52;55.65;;;35.85;;
34405;SDS011;20658;45.630;8.886;2022-12-08T00:31:25;50.22;;;32.15;;
34405;SDS011;20658;45.630;8.886;2022-12-08T00:33:59;51.47;;;33.20;;
34405;SDS011;20658;45.630;8.886;2022-12-08T00:36:33;46.35;;;29.75;;
34405;SDS011;20658;45.630;8.886;2022-12-08T00:39:06;46.85;;;28.45;;
34405;SDS011;20658;45.630;8.886;2022-12-08T00:41:41;42.80;;;30.08;;
34405;SDS011;20658;45.630;8.886;2022-12-08T00:44:32;48.08;;;31.52;;
34405;SDS011;20658;45.630;8.886;2022-12-08T00:47:06;45.60;;;29.80;;
34405;SDS011;20658;45.630;8.886;2022-12-08T00:49:39;44.20;;;28.92;;
34405;SDS011;20658;45.630;8.886;2022-12-08T00:52:13;45.58;;;28.67;;
34405;SDS011;20658;45.630;8.886;2022-12-08T00:54:46;64.93;;;37.75;;
34405;SDS011;20658;45.630;8.886;2022-12-08T00:57:16;47.33;;;28.88;;
34405;SDS011;20658;45.630;8.886;2022-12-08T00:59:44;47.83;;;31.90;;
34405;SDS011;20658;45.630;8.886;2022-12-08T01:02:13;46.00;;;31.40;;
34405;SDS011;20658;45.630;8.886;2022-12-08T01:04:41;47.22;;;30.92;;
34405;SDS011;20658;45.630;8.886;2022-12-08T01:07:10;48.88;;;29.17;;
34405;SDS011;20658;45.630;8.886;2022-12-08T01:09:45;40.95;;;26.00;;
34405;SDS011;20658;45.630;8.886;2022-12-08T01:12:20;42.22;;;24.85;;
34405;SDS011;20658;45.630;8.886;2022-12-08T01:14:53;42.15;;;24.58;;
34405;SDS011;20658;45.630;8.886;2022-12-08T01:17:21;36.35;;;22.63;;
34405;SDS011;20658;45.630;8.886;2022-12-08T01:19:50;39.42;;;22.90;;
34405;SDS011;20658;45.630;8.886;2022-12-08T01:22:19;40.22;;;24.55;;
34405;SDS011;20658;45.630;8.886;2022-12-08T01:24:52;43.67;;;25.88;;
34405;SDS011;20658;45.630;8.886;2022-12-08T01:27:27;43.15;;;25.02;;
34405;SDS011;20658;45.630;8.886;2022-12-08T01:30:00;39.40;;;24.23;;
34405;SDS011;20658;45.630;8.886;2022-12-08T01:32:34;34.80;;;21.80;;
34405;SDS011;20658;45.630;8.886;2022-12-08T01:35:03;37.17;;;23.90;;
34405;SDS011;20658;45.630;8.886;2022-12-08T01:37:37;39.90;;;24.35;;
34405;SDS011;20658;45.630;8.886;2022-12-08T01:40:10;42.30;;;25.48;;
34405;SDS011;20658;45.630;8.886;2022-12-08T01:42:45;38.92;;;24.92;;
34405;SDS011;20658;45.630;8.886;2022-12-08T01:45:15;37.88;;;23.10;;
34405;SDS011;20658;45.630;8.886;2022-12-08T01:47:51;36.33;;;22.02;;
34405;SDS011;20658;45.630;8.886;2022-12-08T01:50:29;36.67;;;21.67;;
34405;SDS011;20658;45.630;8.886;2022-12-08T01:53:01;32.60;;;21.27;;
34405;SDS011;20658;45.630;8.886;2022-12-08T01:55:37;33.28;;;21.58;;
34405;SDS011;20658;45.630;8.886;2022-12-08T01:58:17;33.25;;;22.25;;
34405;SDS011;20658;45.630;8.886;2022-12-08T02:00:50;30.50;;;20.27;;
34405;SDS011;20658;45.630;8.886;2022-12-08T02:03:20;35.58;;;21.52;;
34405;SDS011;20658;45.630;8.886;2022-12-08T02:06:00;40.08;;;22.52;;
34405;SDS011;20658;45.630;8.886;2022-12-08T02:08:29;33.42;;;20.33;;
34405;SDS011;20658;45.630;8.886;2022-12-08T02:11:07;33.92;;;21.58;;
34405;SDS011;20658;45.630;8.886;2022-12-08T02:13:43;38.85;;;22.00;;
34405;SDS011;20658;45.630;8.886;2022-12-08T02:16:23;32.95;;;20.38;;
34405;SDS011;20658;45.630;8.886;2022-12-08T02:19:18;36.53;;;21.00;;
34405;SDS011;20658;45.630;8.886;2022-12-08T02:22:08;33.67;;;20.17;;
34405;SDS011;20658;45.630;8.886;2022-12-08T02:24:42;33.70;;;20.40;;
34405;SDS011;20658;45.630;8.886;2022-12-08T02:27:27;28.83;;;18.25;;
34405;SDS011;20658;45.630;8.886;2022-12-08T02:30:13;31.95;;;19.70;;
34405;SDS011;20658;45.630;8.886;2022-12-08T02:36:01;31.30;;;18.60;;
34405;SDS011;20658;45.630;8.886;2022-12-08T02:38:44;29.67;;;18.33;;
34405;SDS011;20658;45.630;8.886;2022-12-08T02:41:25;28.70;;;19.02;;
34405;SDS011;20658;45.630;8.886;2022-12-08T02:44:05;32.92;;;20.48;;
34405;SDS011;20658;45.630;8.886;2022-12-08T02:46:42;31.90;;;19.67;;
34405;SDS011;20658;45.630;8.886;2022-12-08T02:49:26;31.70;;;19.58;;
34405;SDS011;20658;45.630;8.886;2022-12-08T02:55:08;33.97;;;20.52;;
34405;SDS011;20658;45.630;8.886;2022-12-08T02:57:47;34.58;;;22.80;;
34405;SDS011;20658;45.630;8.886;2022-12-08T03:00:47;35.22;;;21.05;;
34405;SDS011;20658;45.630;8.886;2022-12-08T03:03:34;33.38;;;21.50;;
34405;SDS011;20658;45.630;8.886;2022-12-08T03:06:16;34.67;;;22.45;;
34405;SDS011;20658;45.630;8.886;2022-12-08T03:08:58;33.90;;;20.48;;
34405;SDS011;20658;45.630;8.886;2022-12-08T03:11:37;34.60;;;22.35;;
34405;SDS011;20658;45.630;8.886;2022-12-08T03:14:11;33.03;;;20.23;;
34405;SDS011;20658;45.630;8.886;2022-12-08T03:16:44;35.60;;;20.67;;
34405;SDS011;20658;45.630;8.886;2022-12-08T03:19:23;35.28;;;19.00;;
34405;SDS011;20658;45.630;8.886;2022-12-08T03:22:01;31.98;;;19.05;;
34405;SDS011;20658;45.630;8.886;2022-12-08T03:24:39;32.80;;;18.38;;
34405;SDS011;20658;45.630;8.886;2022-12-08T03:27:16;34.03;;;19.67;;
34405;SDS011;20658;45.630;8.886;2022-12-08T03:29:53;32.65;;;19.27;;
34405;SDS011;20658;45.630;8.886;2022-12-08T03:32:29;32.33;;;19.73;;
34405;SDS011;20658;45.630;8.886;2022-12-08T03:35:08;30.95;;;19.33;;
34405;SDS011;20658;45.630;8.886;2022-12-08T03:37:48;33.20;;;19.70;;
34405;SDS011;20658;45.630;8.886;2022-12-08T03:40:18;31.13;;;18.95;;
34405;SDS011;20658;45.630;8.886;2022-12-08T03:42:52;29.25;;;18.10;;
34405;SDS011;20658;45.630;8.886;2022-12-08T03:45:26;34.42;;;18.23;;
34405;SDS011;20658;45.630;8.886;2022-12-08T03:47:59;28.88;;;17.88;;
34405;SDS011;20658;45.630;8.886;2022-12-08T03:50:33;27.92;;;16.85;;
34405;SDS011;20658;45.630;8.886;2022-12-08T03:53:06;28.02;;;16.83;;
34405;SDS011;20658;45.630;8.886;2022-12-08T03:55:41;31.90;;;17.75;;
34405;SDS011;20658;45.630;8.886;2022-12-08T03:58:14;25.67;;;16.10;;
34405;SDS011;20658;45.630;8.886;2022-12-08T04:00:48;30.38;;;16.88;;
34405;SDS011;20658;45.630;8.886;2022-12-08T04:03:22;31.67;;;18.13;;
34405;SDS011;20658;45.630;8.886;2022-12-08T04:05:55;29.52;;;17.40;;
34405;SDS011;20658;45.630;8.886;2022-12-08T04:08:28;29.10;;;16.60;;
34405;SDS011;20658;45.630;8.886;2022-12-08T04:11:03;32.20;;;18.50;;
34405;SDS011;20658;45.630;8.886;2022-12-08T04:13:33;30.05;;;18.52;;
34405;SDS011;20658;45.630;8.886;2022-12-08T04:16:12;30.13;;;17.90;;
34405;SDS011;20658;45.630;8.886;2022-12-08T04:18:48;30.90;;;19.30;;
34405;SDS011;20658;45.630;8.886;2022-12-08T04:21:21;32.30;;;20.55;;
34405;SDS011;20658;45.630;8.886;2022-12-08T04:23:55;33.38;;;21.40;;
34405;SDS011;20658;45.630;8.886;2022-12-08T04:26:29;35.67;;;20.85;;
34405;SDS011;20658;45.630;8.886;2022-12-08T04:29:03;30.90;;;20.38;;
34405;SDS011;20658;45.630;8.886;2022-12-08T04:31:36;31.80;;;20.55;;
34405;SDS011;20658;45.630;8.886;2022-12-08T04:34:10;30.70;;;19.65;;
34405;SDS011;20658;45.630;8.886;2022-12-08T04:36:43;33.03;;;20.00;;
34405;SDS011;20658;45.630;8.886;2022-12-08T04:39:16;32.13;;;19.80;;
34405;SDS011;20658;45.630;8.886;2022-12-08T04:41:51;33.15;;;21.30;;
34405;SDS011;20658;45.630;8.886;2022-12-08T04:44:25;32.60;;;20.50;;
34405;SDS011;20658;45.630;8.886;2022-12-08T04:46:58;37.75;;;21.48;;
34405;SDS011;20658;45.630;8.886;2022-12-08T04:49:31;33.22;;;21.27;;
34405;SDS011;20658;45.630;8.886;2022-12-08T04:52:05;32.20;;;20.73;;
34405;SDS011;20658;45.630;8.886;2022-12-08T04:54:38;31.35;;;20.88;;
34405;SDS011;20658;45.630;8.886;2022-12-08T04:57:13;33.95;;;21.65;;
34405;SDS011;20658;45.630;8.886;2022-12-08T04:59:46;35.72;;;21.38;;
34405;SDS011;20658;45.630;8.886;2022-12-08T05:02:20;38.88;;;23.15;;
34405;SDS011;20658;45.630;8.886;2022-12-08T05:04:53;36.30;;;22.85;;
34405;SDS011;20658;45.630;8.886;2022-12-08T05:07:26;34.17;;;21.00;;
34405;SDS011;20658;45.630;8.886;2022-12-08T05:10:00;34.85;;;23.52;;
34405;SDS011;20658;45.630;8.886;2022-12-08T05:12:35;38.53;;;22.77;;
34405;SDS011;20658;45.630;8.886;2022-12-08T05:15:08;37.10;;;22.20;;
34405;SDS011;20658;45.630;8.886;2022-12-08T05:17:42;36.05;;;21.90;;
34405;SDS011;20658;45.630;8.886;2022-12-08T05:20:15;32.00;;;21.77;;
34405;SDS011;20658;45.630;8.886;2022-12-08T05:22:48;32.00;;;20.33;;
34405;SDS011;20658;45.630;8.886;2022-12-08T05:25:22;32.50;;;19.65;;
34405;SDS011;20658;45.630;8.886;2022-12-08T05:27:57;34.08;;;19.80;;
34405;SDS011;20658;45.630;8.886;2022-12-08T05:30:30;34.05;;;19.40;;
34405;SDS011;20658;45.630;8.886;2022-12-08T05:33:03;29.55;;;18.83;;
34405;SDS011;20658;45.630;8.886;2022-12-08T05:35:37;29.40;;;18.95;;
34405;SDS011;20658;45.630;8.886;2022-12-08T05:38:10;30.80;;;17.65;;
34405;SDS011;20658;45.630;8.886;2022-12-08T05:40:43;30.58;;;17.48;;
34405;SDS011;20658;45.630;8.886;2022-12-08T05:43:18;29.65;;;16.38;;
34405;SDS011;20658;45.630;8.886;2022-12-08T05:45:52;28.17;;;16.80;;
34405;SDS011;20658;45.630;8.886;2022-12-08T05:48:25;26.80;;;16.70;;
34405;SDS011;20658;45.630;8.886;2022-12-08T05:50:58;28.02;;;15.82;;
34405;SDS011;20658;45.630;8.886;2022-12-08T05:53:33;26.17;;;14.40;;
34405;SDS011;20658;45.630;8.886;2022-12-08T05:56:06;26.85;;;16.98;;
34405;SDS011;20658;45.630;8.886;2022-12-08T05:58:41;24.40;;;14.35;;
34405;SDS011;20658;45.630;8.886;2022-12-08T06:01:18;23.85;;;14.50;;
34405;SDS011;20658;45.630;8.886;2022-12-08T06:03:53;23.85;;;14.02;;
34405;SDS011;20658;45.630;8.886;2022-12-08T06:06:28;23.98;;;13.98;;
34405;SDS011;20658;45.630;8.886;2022-12-08T06:09:03;26.20;;;15.07;;
34405;SDS011;20658;45.630;8.886;2022-12-08T06:11:37;26.55;;;15.07;;
34405;SDS011;20658;45.630;8.886;2022-12-08T06:14:12;22.88;;;13.55;;
34405;SDS011;20658;45.630;8.886;2022-12-08T06:16:46;24.77;;;15.40;;
34405;SDS011;20658;45.630;8.886;2022-12-08T06:19:14;29.20;;;15.45;;
34405;SDS011;20658;45.630;8.886;2022-12-08T06:21:47;27.98;;;16.85;;
34405;SDS011;20658;45.630;8.886;2022-12-08T06:24:21;35.38;;;18.80;;
34405;SDS011;20658;45.630;8.886;2022-12-08T06:26:54;28.67;;;15.40;;
34405;SDS011;20658;45.630;8.886;2022-12-08T06:29:29;28.88;;;14.43;;
34405;SDS011;20658;45.630;8.886;2022-12-08T06:32:02;24.17;;;15.15;;
34405;SDS011;20658;45.630;8.886;2022-12-08T06:34:36;27.13;;;14.85;;
34405;SDS011;20658;45.630;8.886;2022-12-08T06:37:09;22.88;;;14.15;;
34405;SDS011;20658;45.630;8.886;2022-12-08T06:39:43;27.17;;;13.75;;
34405;SDS011;20658;45.630;8.886;2022-12-08T06:42:16;27.10;;;16.20;;
34405;SDS011;20658;45.630;8.886;2022-12-08T06:45:09;24.92;;;15.48;;
34405;SDS011;20658;45.630;8.886;2022-12-08T06:47:44;22.73;;;13.80;;
34405;SDS011;20658;45.630;8.886;2022-12-08T06:50:17;24.95;;;13.10;;
34405;SDS011;20658;45.630;8.886;2022-12-08T06:52:51;25.35;;;13.63;;
34405;SDS011;20658;45.630;8.886;2022-12-08T06:55:24;33.65;;;18.65;;
34405;SDS011;20658;45.630;8.886;2022-12-08T06:57:58;29.33;;;15.75;;
34405;SDS011;20658;45.630;8.886;2022-12-08T07:00:33;22.77;;;12.93;;
34405;SDS011;20658;45.630;8.886;2022-12-08T07:03:06;27.55;;;14.02;;
34405;SDS011;20658;45.630;8.886;2022-12-08T07:05:40;26.80;;;14.52;;
34405;SDS011;20658;45.630;8.886;2022-12-08T07:08:13;30.25;;;16.60;;
34405;SDS011;20658;45.630;8.886;2022-12-08T07:10:46;37.80;;;18.52;;
34405;SDS011;20658;45.630;8.886;2022-12-08T07:13:20;25.55;;;15.70;;
34405;SDS011;20658;45.630;8.886;2022-12-08T07:15:56;28.30;;;15.80;;
34405;SDS011;20658;45.630;8.886;2022-12-08T07:18:29;27.67;;;15.77;;
34405;SDS011;20658;45.630;8.886;2022-12-08T07:21:03;27.67;;;15.90;;
34405;SDS011;20658;45.630;8.886;2022-12-08T07:23:34;26.98;;;15.52;;
34405;SDS011;20658;45.630;8.886;2022-12-08T07:26:04;26.10;;;14.98;;
34405;SDS011;20658;45.630;8.886;2022-12-08T07:28:41;29.85;;;18.17;;
34405;SDS011;20658;45.630;8.886;2022-12-08T07:31:17;30.48;;;15.93;;
34405;SDS011;20658;45.630;8.886;2022-12-08T07:33:52;26.98;;;14.30;;
34405;SDS011;20658;45.630;8.886;2022-12-08T07:36:27;20.33;;;11.77;;
34405;SDS011;20658;45.630;8.886;2022-12-08T07:39:00;25.10;;;12.98;;
34405;SDS011;20658;45.630;8.886;2022-12-08T07:41:29;24.30;;;13.38;;
34405;SDS011;20658;45.630;8.886;2022-12-08T07:44:03;31.00;;;15.18;;
34405;SDS011;20658;45.630;8.886;2022-12-08T07:46:38;27.48;;;15.02;;
34405;SDS011;20658;45.630;8.886;2022-12-08T07:49:11;28.55;;;15.85;;
34405;SDS011;20658;45.630;8.886;2022-12-08T07:51:45;28.25;;;19.50;;
34405;SDS011;20658;45.630;8.886;2022-12-08T07:54:18;30.77;;;16.13;;
34405;SDS011;20658;45.630;8.886;2022-12-08T07:56:51;27.83;;;15.48;;
34405;SDS011;20658;45.630;8.886;2022-12-08T07:59:25;27.65;;;15.20;;
34405;SDS011;20658;45.630;8.886;2022-12-08T08:02:00;32.28;;;16.55;;
34405;SDS011;20658;45.630;8.886;2022-12-08T08:04:28;40.00;;;24.75;;
34405;SDS011;20658;45.630;8.886;2022-12-08T08:06:57;59.00;;;43.17;;
34405;SDS011;20658;45.630;8.886;2022-12-08T08:09:33;23.25;;;14.77;;
34405;SDS011;20658;45.630;8.886;2022-12-08T08:12:07;25.67;;;13.75;;
34405;SDS011;20658;45.630;8.886;2022-12-08T08:14:36;24.58;;;15.07;;
34405;SDS011;20658;45.630;8.886;2022-12-08T08:17:11;28.73;;;16.25;;
34405;SDS011;20658;45.630;8.886;2022-12-08T08:19:45;22.20;;;13.30;;
34405;SDS011;20658;45.630;8.886;2022-12-08T08:22:18;23.05;;;12.82;;
34405;SDS011;20658;45.630;8.886;2022-12-08T08:24:51;26.23;;;13.30;;
34405;SDS011;20658;45.630;8.886;2022-12-08T08:27:20;24.10;;;11.68;;
34405;SDS011;20658;45.630;8.886;2022-12-08T08:29:55;24.90;;;12.80;;
34405;SDS011;20658;45.630;8.886;2022-12-08T08:32:32;20.50;;;12.15;;
34405;SDS011;20658;45.630;8.886;2022-12-08T08:35:06;22.08;;;12.75;;
34405;SDS011;20658;45.630;8.886;2022-12-08T08:37:40;35.17;;;23.08;;
34405;SDS011;20658;45.630;8.886;2022-12-08T08:40:20;30.17;;;14.15;;
34405;SDS011;20658;45.630;8.886;2022-12-08T08:42:55;26.92;;;14.25;;
34405;SDS011;20658;45.630;8.886;2022-12-08T08:45:31;25.83;;;13.60;;
34405;SDS011;20658;45.630;8.886;2022-12-08T08:48:06;27.17;;;15.50;;
34405;SDS011;20658;45.630;8.886;2022-12-08T08:50:35;25.85;;;15.95;;
34405;SDS011;20658;45.630;8.886;2022-12-08T08:53:08;23.83;;;15.25;;
34405;SDS011;20658;45.630;8.886;2022-12-08T08:55:37;35.58;;;22.55;;
34405;SDS011;20658;45.630;8.886;2022-12-08T08:58:11;29.45;;;18.30;;
34405;SDS011;20658;45.630;8.886;2022-12-08T09:00:45;32.55;;;19.55;;
34405;SDS011;20658;45.630;8.886;2022-12-08T09:03:19;22.95;;;13.25;;
34405;SDS011;20658;45.630;8.886;2022-12-08T09:05:53;32.55;;;20.30;;
34405;SDS011;20658;45.630;8.886;2022-12-08T09:08:27;28.88;;;17.38;;
34405;SDS011;20658;45.630;8.886;2022-12-08T09:11:00;28.58;;;17.45;;
34405;SDS011;20658;45.630;8.886;2022-12-08T09:13:34;24.55;;;14.60;;
34405;SDS011;20658;45.630;8.886;2022-12-08T09:16:07;26.38;;;14.45;;
34405;SDS011;20658;45.630;8.886;2022-12-08T09:18:44;20.98;;;12.30;;
34405;SDS011;20658;45.630;8.886;2022-12-08T09:21:14;22.02;;;12.55;;
34405;SDS011;20658;45.630;8.886;2022-12-08T09:23:53;21.15;;;11.73;;
34405;SDS011;20658;45.630;8.886;2022-12-08T09:26:28;18.83;;;10.85;;
34405;SDS011;20658;45.630;8.886;2022-12-08T09:29:02;22.27;;;11.55;;
34405;SDS011;20658;45.630;8.886;2022-12-08T09:31:35;22.23;;;10.93;;
34405;SDS011;20658;45.630;8.886;2022-12-08T09:34:10;22.48;;;12.07;;
34405;SDS011;20658;45.630;8.886;2022-12-08T09:36:44;23.15;;;13.00;;
34405;SDS011;20658;45.630;8.886;2022-12-08T09:39:17;22.63;;;12.65;;
34405;SDS011;20658;45.630;8.886;2022-12-08T09:41:52;24.77;;;13.95;;
34405;SDS011;20658;45.630;8.886;2022-12-08T09:44:34;24.30;;;12.95;;
34405;SDS011;20658;45.630;8.886;2022-12-08T09:47:21;27.17;;;13.77;;
34405;SDS011;20658;45.630;8.886;2022-12-08T09:50:01;39.63;;;19.73;;
34405;SDS011;20658;45.630;8.886;2022-12-08T09:52:40;126.88;;;70.20;;
34405;SDS011;20658;45.630;8.886;2022-12-08T09:55:19;28.95;;;15.32;;
34405;SDS011;20658;45.630;8.886;2022-12-08T09:57:59;25.98;;;14.82;;
34405;SDS011;20658;45.630;8.886;2022-12-08T10:00:34;25.75;;;13.90;;
34405;SDS011;20658;45.630;8.886;2022-12-08T10:03:03;27.88;;;14.57;;
34405;SDS011;20658;45.630;8.886;2022-12-08T10:05:42;24.42;;;14.20;;
34405;SDS011;20658;45.630;8.886;2022-12-08T10:11:01;24.25;;;12.45;;
34405;SDS011;20658;45.630;8.886;2022-12-08T10:13:46;68.28;;;31.55;;
34405;SDS011;20658;45.630;8.886;2022-12-08T10:16:29;20.48;;;11.30;;
34405;SDS011;20658;45.630;8.886;2022-12-08T10:19:10;21.30;;;11.40;;
34405;SDS011;20658;45.630;8.886;2022-12-08T10:21:50;25.98;;;13.05;;
34405;SDS011;20658;45.630;8.886;2022-12-08T10:24:28;27.13;;;14.43;;
34405;SDS011;20658;45.630;8.886;2022-12-08T10:27:02;23.05;;;13.25;;
34405;SDS011;20658;45.630;8.886;2022-12-08T10:29:41;26.60;;;14.38;;
34405;SDS011;20658;45.630;8.886;2022-12-08T10:32:16;26.95;;;14.80;;
34405;SDS011;20658;45.630;8.886;2022-12-08T10:35:00;22.50;;;12.35;;
34405;SDS011;20658;45.630;8.886;2022-12-08T10:37:39;24.40;;;13.30;;
34405;SDS011;20658;45.630;8.886;2022-12-08T10:40:13;21.85;;;11.85;;
34405;SDS011;20658;45.630;8.886;2022-12-08T10:42:49;27.33;;;12.40;;
34405;SDS011;20658;45.630;8.886;2022-12-08T10:45:25;19.88;;;11.02;;
34405;SDS011;20658;45.630;8.886;2022-12-08T10:48:02;24.23;;;12.75;;
34405;SDS011;20658;45.630;8.886;2022-12-08T10:50:40;18.48;;;9.65;;
34405;SDS011;20658;45.630;8.886;2022-12-08T10:53:13;20.25;;;11.32;;
34405;SDS011;20658;45.630;8.886;2022-12-08T10:55:52;21.48;;;12.10;;
34405;SDS011;20658;45.630;8.886;2022-12-08T10:58:39;21.63;;;11.18;;
34405;SDS011;20658;45.630;8.886;2022-12-08T11:01:16;19.75;;;11.95;;
34405;SDS011;20658;45.630;8.886;2022-12-08T11:03:53;19.63;;;11.57;;
34405;SDS011;20658;45.630;8.886;2022-12-08T11:06:30;21.52;;;12.05;;
34405;SDS011;20658;45.630;8.886;2022-12-08T11:09:21;20.05;;;11.45;;
34405;SDS011;20658;45.630;8.886;2022-12-08T11:11:57;29.00;;;12.70;;
34405;SDS011;20658;45.630;8.886;2022-12-08T11:14:37;25.08;;;13.27;;
34405;SDS011;20658;45.630;8.886;2022-12-08T11:17:24;20.67;;;13.35;;
34405;SDS011;20658;45.630;8.886;2022-12-08T11:20:02;22.77;;;13.48;;
34405;SDS011;20658;45.630;8.886;2022-12-08T11:22:52;25.70;;;14.05;;
34405;SDS011;20658;45.630;8.886;2022-12-08T11:25:28;22.08;;;14.02;;
34405;SDS011;20658;45.630;8.886;2022-12-08T11:28:06;24.45;;;15.52;;
34405;SDS011;20658;45.630;8.886;2022-12-08T11:30:37;24.98;;;15.30;;
34405;SDS011;20658;45.630;8.886;2022-12-08T11:33:18;27.35;;;16.83;;
34405;SDS011;20658;45.630;8.886;2022-12-08T11:35:57;28.98;;;17.98;;
34405;SDS011;20658;45.630;8.886;2022-12-08T11:38:30;26.38;;;17.42;;
34405;SDS011;20658;45.630;8.886;2022-12-08T11:41:07;27.70;;;18.02;;
34405;SDS011;20658;45.630;8.886;2022-12-08T11:43:45;29.30;;;17.90;;
34405;SDS011;20658;45.630;8.886;2022-12-08T11:46:27;27.77;;;17.35;;
34405;SDS011;20658;45.630;8.886;2022-12-08T11:49:01;27.55;;;17.13;;
34405;SDS011;20658;45.630;8.886;2022-12-08T11:51:38;25.73;;;16.35;;
34405;SDS011;20658;45.630;8.886;2022-12-08T11:54:17;24.80;;;16.60;;
34405;SDS011;20658;45.630;8.886;2022-12-08T11:56:57;23.85;;;15.60;;
34405;SDS011;20658;45.630;8.886;2022-12-08T11:59:33;23.83;;;15.65;;
34405;SDS011;20658;45.630;8.886;2022-12-08T12:02:12;26.67;;;15.25;;
34405;SDS011;20658;45.630;8.886;2022-12-08T12:04:49;23.90;;;15.18;;
34405;SDS011;20658;45.630;8.886;2022-12-08T12:07:31;25.55;;;16.73;;
34405;SDS011;20658;45.630;8.886;2022-12-08T12:10:38;29.42;;;16.13;;
34405;SDS011;20658;45.630;8.886;2022-12-08T12:13:35;23.13;;;15.32;;
34405;SDS011;20658;45.630;8.886;2022-12-08T12:16:47;24.40;;;16.33;;
34405;SDS011;20658;45.630;8.886;2022-12-08T12:19:33;24.27;;;17.52;;
34405;SDS011;20658;45.630;8.886;2022-12-08T12:22:11;30.65;;;17.92;;
34405;SDS011;20658;45.630;8.886;2022-12-08T12:24:48;25.05;;;17.30;;
34405;SDS011;20658;45.630;8.886;2022-12-08T12:27:22;29.15;;;18.00;;
34405;SDS011;20658;45.630;8.886;2022-12-08T12:30:02;27.73;;;18.88;;
34405;SDS011;20658;45.630;8.886;2022-12-08T12:32:40;25.98;;;18.58;;
34405;SDS011;20658;45.630;8.886;2022-12-08T12:35:19;25.25;;;17.52;;
34405;SDS011;20658;45.630;8.886;2022-12-08T12:37:58;25.58;;;18.42;;
34405;SDS011;20658;45.630;8.886;2022-12-08T12:40:33;25.15;;;17.77;;
34405;SDS011;20658;45.630;8.886;2022-12-08T12:43:19;26.42;;;18.15;;
34405;SDS011;20658;45.630;8.886;2022-12-08T12:52:40;27.15;;;16.00;;
34405;SDS011;20658;45.630;8.886;2022-12-08T12:55:19;24.77;;;17.95;;
34405;SDS011;20658;45.630;8.886;2022-12-08T12:58:35;23.23;;;15.52;;
34405;SDS011;20658;45.630;8.886;2022-12-08T13:04:33;22.95;;;14.95;;
34405;SDS011;20658;45.630;8.886;2022-12-08T13:07:08;23.23;;;15.20;;
34405;SDS011;20658;45.630;8.886;2022-12-08T13:09:50;24.33;;;16.88;;
34405;SDS011;20658;45.630;8.886;2022-12-08T13:12:30;24.38;;;15.50;;
34405;SDS011;20658;45.630;8.886;2022-12-08T13:15:04;24.65;;;16.95;;
34405;SDS011;20658;45.630;8.886;2022-12-08T13:17:42;25.45;;;16.20;;
34405;SDS011;20658;45.630;8.886;2022-12-08T13:20:18;26.02;;;16.38;;
34405;SDS011;20658;45.630;8.886;2022-12-08T13:23:01;23.65;;;15.88;;
34405;SDS011;20658;45.630;8.886;2022-12-08T13:26:09;25.38;;;16.23;;
34405;SDS011;20658;45.630;8.886;2022-12-08T13:29:03;27.07;;;16.03;;
34405;SDS011;20658;45.630;8.886;2022-12-08T13:31:46;24.35;;;15.18;;
34405;SDS011;20658;45.630;8.886;2022-12-08T13:34:26;26.15;;;17.55;;
34405;SDS011;20658;45.630;8.886;2022-12-08T13:37:16;25.20;;;16.67;;
34405;SDS011;20658;45.630;8.886;2022-12-08T13:39:53;25.52;;;17.00;;
34405;SDS011;20658;45.630;8.886;2022-12-08T13:42:32;24.05;;;15.90;;
34405;SDS011;20658;45.630;8.886;2022-12-08T13:47:47;24.75;;;15.63;;
34405;SDS011;20658;45.630;8.886;2022-12-08T13:50:30;31.10;;;17.33;;
34405;SDS011;20658;45.630;8.886;2022-12-08T13:53:09;29.95;;;18.20;;
34405;SDS011;20658;45.630;8.886;2022-12-08T13:55:47;25.70;;;16.03;;
34405;SDS011;20658;45.630;8.886;2022-12-08T13:58:26;26.55;;;17.08;;
34405;SDS011;20658;45.630;8.886;2022-12-08T14:01:03;25.65;;;15.85;;
34405;SDS011;20658;45.630;8.886;2022-12-08T14:03:46;27.73;;;17.83;;
34405;SDS011;20658;45.630;8.886;2022-12-08T14:06:35;28.50;;;18.05;;
34405;SDS011;20658;45.630;8.886;2022-12-08T14:09:09;24.13;;;16.40;;
34405;SDS011;20658;45.630;8.886;2022-12-08T14:11:49;26.33;;;20.35;;
34405;SDS011;20658;45.630;8.886;2022-12-08T14:14:26;25.02;;;16.23;;
34405;SDS011;20658;45.630;8.886;2022-12-08T14:17:03;25.88;;;16.75;;
34405;SDS011;20658;45.630;8.886;2022-12-08T14:19:38;25.45;;;15.93;;
34405;SDS011;20658;45.630;8.886;2022-12-08T14:22:17;25.10;;;16.75;;
34405;SDS011;20658;45.630;8.886;2022-12-08T14:24:51;29.15;;;18.83;;
34405;SDS011;20658;45.630;8.886;2022-12-08T14:27:26;27.65;;;17.38;;
34405;SDS011;20658;45.630;8.886;2022-12-08T14:30:05;31.80;;;19.75;;
34405;SDS011;20658;45.630;8.886;2022-12-08T14:32:51;25.35;;;17.30;;
34405;SDS011;20658;45.630;8.886;2022-12-08T14:35:29;28.30;;;18.65;;
34405;SDS011;20658;45.630;8.886;2022-12-08T14:38:10;26.38;;;16.73;;
34405;SDS011;20658;45.630;8.886;2022-12-08T14:40:46;35.38;;;27.95;;
34405;SDS011;20658;45.630;8.886;2022-12-08T14:43:23;30.75;;;20.70;;
34405;SDS011;20658;45.630;8.886;2022-12-08T14:45:55;25.55;;;16.50;;
34405;SDS011;20658;45.630;8.886;2022-12-08T14:48:39;25.85;;;16.05;;
34405;SDS011;20658;45.630;8.886;2022-12-08T14:51:13;32.88;;;19.52;;
34405;SDS011;20658;45.630;8.886;2022-12-08T14:53:56;26.85;;;16.95;;
34405;SDS011;20658;45.630;8.886;2022-12-08T14:56:32;26.02;;;16.85;;
34405;SDS011;20658;45.630;8.886;2022-12-08T14:59:11;27.00;;;16.52;;
34405;SDS011;20658;45.630;8.886;2022-12-08T15:01:47;46.10;;;30.13;;
34405;SDS011;20658;45.630;8.886;2022-12-08T15:04:19;46.40;;;29.60;;
34405;SDS011;20658;45.630;8.886;2022-12-08T15:06:55;27.90;;;18.63;;
34405;SDS011;20658;45.630;8.886;2022-12-08T15:09:36;46.03;;;31.17;;
34405;SDS011;20658;45.630;8.886;2022-12-08T15:12:19;42.53;;;30.65;;
34405;SDS011;20658;45.630;8.886;2022-12-08T15:14:57;37.45;;;27.77;;
34405;SDS011;20658;45.630;8.886;2022-12-08T15:17:34;41.28;;;28.10;;
34405;SDS011;20658;45.630;8.886;2022-12-08T15:20:26;50.03;;;36.10;;
34405;SDS011;20658;45.630;8.886;2022-12-08T15:23:10;46.38;;;30.65;;
34405;SDS011;20658;45.630;8.886;2022-12-08T15:25:54;43.83;;;29.58;;
34405;SDS011;20658;45.630;8.886;2022-12-08T15:28:28;39.67;;;27.73;;
34405;SDS011;20658;45.630;8.886;2022-12-08T15:31:02;48.08;;;30.45;;
34405;SDS011;20658;45.630;8.886;2022-12-08T15:33:35;40.83;;;28.45;;
34405;SDS011;20658;45.630;8.886;2022-12-08T15:36:09;45.90;;;31.67;;